sensor_id;sensor_type;location;lat;lon;timestamp;P1;durP1;ratioP1;P2;durP2;ratioP2
4672;SDS011;61885;53.560;9.940;2022-11-23T00:02:18;14.43;;;7.10;;
4672;SDS011;61885;53.560;9.940;2022-11-23T00:04:52;15.30;;;7.30;;
4672;SDS011;61885;53.560;9.940;2022-11-23T00:07:21;15.27;;;6.83;;
4672;SDS011;61885;53.560;9.940;2022-11-23T00:09:53;15.13;;;6.87;;
4672;SDS011;61885;53.560;9.940;2022-11-23T00:12:23;20.97;;;7.40;;
4672;SDS011;61885;53.560;9.940;2022-11-23T00:14:56;20.23;;;8.50;;
4672;SDS011;61885;53.560;9.940;2022-11-23T00:17:30;21.50;;;8.27;;
4672;SDS011;61885;53.560;9.940;2022-11-23T00:20:03;20.83;;;7.63;;
4672;SDS011;61885;53.560;9.940;2022-11-23T00:22:37;13.80;;;6.80;;
4672;SDS011;61885;53.560;9.940;2022-11-23T00:25:07;13.70;;;6.90;;
4672;SDS011;61885;53.560;9.940;2022-11-23T00:27:37;15.20;;;7.20;;
4672;SDS011;61885;53.560;9.940;2022-11-23T00:30:12;19.30;;;6.57;;
4672;SDS011;61885;53.560;9.940;2022-11-23T00:32:45;15.47;;;8.10;;
4672;SDS011;61885;53.560;9.940;2022-11-23T00:35:17;17.77;;;7.40;;
4672;SDS011;61885;53.560;9.940;2022-11-23T00:37:47;12.87;;;7.67;;
4672;SDS011;61885;53.560;9.940;2022-11-23T00:40:17;14.83;;;6.43;;
4672;SDS011;61885;53.560;9.940;2022-11-23T00:42:47;18.93;;;6.70;;
4672;SDS011;61885;53.560;9.940;2022-11-23T00:45:16;17.43;;;7.63;;
4672;SDS011;61885;53.560;9.940;2022-11-23T00:47:49;18.47;;;8.00;;
4672;SDS011;61885;53.560;9.940;2022-11-23T00:50:18;23.37;;;8.30;;
4672;SDS011;61885;53.560;9.940;2022-11-23T00:52:48;9.40;;;5.60;;
4672;SDS011;61885;53.560;9.940;2022-11-23T00:55:19;18.13;;;7.77;;
4672;SDS011;61885;53.560;9.940;2022-11-23T00:57:49;26.80;;;7.60;;
4672;SDS011;61885;53.560;9.940;2022-11-23T01:00:18;12.47;;;7.17;;
4672;SDS011;61885;53.560;9.940;2022-11-23T01:02:51;12.83;;;6.73;;
4672;SDS011;61885;53.560;9.940;2022-11-23T01:05:23;15.90;;;7.17;;
4672;SDS011;61885;53.560;9.940;2022-11-23T01:07:54;12.70;;;6.63;;
4672;SDS011;61885;53.560;9.940;2022-11-23T01:10:23;34.83;;;7.03;;
4672;SDS011;61885;53.560;9.940;2022-11-23T01:12:53;17.40;;;7.67;;
4672;SDS011;61885;53.560;9.940;2022-11-23T01:15:23;13.87;;;7.13;;
4672;SDS011;61885;53.560;9.940;2022-11-23T01:17:55;15.87;;;6.93;;
4672;SDS011;61885;53.560;9.940;2022-11-23T01:20:25;14.97;;;6.00;;
4672;SDS011;61885;53.560;9.940;2022-11-23T01:22:55;21.10;;;8.37;;
4672;SDS011;61885;53.560;9.940;2022-11-23T01:25:26;18.70;;;8.00;;
4672;SDS011;61885;53.560;9.940;2022-11-23T01:27:55;16.20;;;8.47;;
4672;SDS011;61885;53.560;9.940;2022-11-23T01:30:27;12.80;;;7.17;;
4672;SDS011;61885;53.560;9.940;2022-11-23T01:32:59;20.40;;;7.17;;
4672;SDS011;61885;53.560;9.940;2022-11-23T01:35:29;9.93;;;5.83;;
4672;SDS011;61885;53.560;9.940;2022-11-23T01:37:59;13.57;;;6.83;;
4672;SDS011;61885;53.560;9.940;2022-11-23T01:40:29;15.97;;;7.50;;
4672;SDS011;61885;53.560;9.940;2022-11-23T01:42:59;15.97;;;7.73;;
4672;SDS011;61885;53.560;9.940;2022-11-23T01:45:37;17.63;;;6.87;;
4672;SDS011;61885;53.560;9.940;2022-11-23T01:48:13;12.73;;;7.00;;
4672;SDS011;61885;53.560;9.940;2022-11-23T01:50:48;20.30;;;7.70;;
4672;SDS011;61885;53.560;9.940;2022-11-23T01:53:19;22.03;;;7.90;;
4672;SDS011;61885;53.560;9.940;2022-11-23T01:55:53;14.70;;;7.97;;
4672;SDS011;61885;53.560;9.940;2022-11-23T01:58:25;15.37;;;7.10;;
4672;SDS011;61885;53.560;9.940;2022-11-23T02:00:56;19.00;;;7.43;;
4672;SDS011;61885;53.560;9.940;2022-11-23T02:03:30;16.93;;;6.93;;
4672;SDS011;61885;53.560;9.940;2022-11-23T02:06:03;20.33;;;7.83;;
4672;SDS011;61885;53.560;9.940;2022-11-23T02:08:37;14.57;;;7.77;;
4672;SDS011;61885;53.560;9.940;2022-11-23T02:11:07;17.53;;;5.70;;
4672;SDS011;61885;53.560;9.940;2022-11-23T02:13:39;21.80;;;8.17;;
4672;SDS011;61885;53.560;9.940;2022-11-23T02:16:10;17.03;;;6.50;;
4672;SDS011;61885;53.560;9.940;2022-11-23T02:18:46;21.10;;;7.70;;
4672;SDS011;61885;53.560;9.940;2022-11-23T02:21:21;14.17;;;6.40;;
4672;SDS011;61885;53.560;9.940;2022-11-23T02:23:53;11.77;;;6.53;;
4672;SDS011;61885;53.560;9.940;2022-11-23T02:26:31;13.03;;;6.60;;
4672;SDS011;61885;53.560;9.940;2022-11-23T02:29:04;10.37;;;6.07;;
4672;SDS011;61885;53.560;9.940;2022-11-23T02:31:37;16.03;;;6.03;;
4672;SDS011;61885;53.560;9.940;2022-11-23T02:34:08;13.73;;;6.03;;
4672;SDS011;61885;53.560;9.940;2022-11-23T02:36:39;14.07;;;6.60;;
4672;SDS011;61885;53.560;9.940;2022-11-23T02:39:10;11.33;;;6.13;;
4672;SDS011;61885;53.560;9.940;2022-11-23T02:41:45;16.27;;;6.70;;
4672;SDS011;61885;53.560;9.940;2022-11-23T02:44:28;13.50;;;6.10;;
4672;SDS011;61885;53.560;9.940;2022-11-23T02:47:07;16.63;;;6.43;;
4672;SDS011;61885;53.560;9.940;2022-11-23T02:49:39;14.33;;;6.67;;
4672;SDS011;61885;53.560;9.940;2022-11-23T02:52:10;15.60;;;6.87;;
4672;SDS011;61885;53.560;9.940;2022-11-23T02:54:40;13.93;;;7.40;;
4672;SDS011;61885;53.560;9.940;2022-11-23T02:57:16;15.83;;;6.70;;
4672;SDS011;61885;53.560;9.940;2022-11-23T02:59:46;18.37;;;7.10;;
4672;SDS011;61885;53.560;9.940;2022-11-23T03:02:19;20.73;;;7.40;;
4672;SDS011;61885;53.560;9.940;2022-11-23T03:04:48;14.73;;;6.50;;
4672;SDS011;61885;53.560;9.940;2022-11-23T03:07:20;16.00;;;6.40;;
4672;SDS011;61885;53.560;9.940;2022-11-23T03:09:50;17.40;;;7.47;;
4672;SDS011;61885;53.560;9.940;2022-11-23T03:12:22;14.67;;;5.80;;
4672;SDS011;61885;53.560;9.940;2022-11-23T03:14:52;16.77;;;7.00;;
4672;SDS011;61885;53.560;9.940;2022-11-23T03:17:23;15.13;;;6.33;;
4672;SDS011;61885;53.560;9.940;2022-11-23T03:19:53;19.67;;;8.07;;
4672;SDS011;61885;53.560;9.940;2022-11-23T03:22:23;18.33;;;7.47;;
4672;SDS011;61885;53.560;9.940;2022-11-23T03:24:53;15.17;;;7.03;;
4672;SDS011;61885;53.560;9.940;2022-11-23T03:27:28;13.50;;;6.73;;
4672;SDS011;61885;53.560;9.940;2022-11-23T03:30:08;13.37;;;7.13;;
4672;SDS011;61885;53.560;9.940;2022-11-23T03:32:45;17.90;;;6.83;;
4672;SDS011;61885;53.560;9.940;2022-11-23T03:35:15;15.37;;;6.87;;
4672;SDS011;61885;53.560;9.940;2022-11-23T03:37:46;26.00;;;7.13;;
4672;SDS011;61885;53.560;9.940;2022-11-23T03:40:16;14.50;;;6.47;;
4672;SDS011;61885;53.560;9.940;2022-11-23T03:42:48;12.30;;;7.43;;
4672;SDS011;61885;53.560;9.940;2022-11-23T03:45:19;14.07;;;7.23;;
4672;SDS011;61885;53.560;9.940;2022-11-23T03:47:50;18.77;;;7.30;;
4672;SDS011;61885;53.560;9.940;2022-11-23T03:50:21;19.60;;;6.87;;
4672;SDS011;61885;53.560;9.940;2022-11-23T03:52:51;15.73;;;7.10;;
4672;SDS011;61885;53.560;9.940;2022-11-23T03:55:21;11.27;;;6.37;;
4672;SDS011;61885;53.560;9.940;2022-11-23T03:57:54;11.67;;;6.40;;
4672;SDS011;61885;53.560;9.940;2022-11-23T04:00:26;11.93;;;6.20;;
4672;SDS011;61885;53.560;9.940;2022-11-23T04:02:56;18.73;;;7.30;;
4672;SDS011;61885;53.560;9.940;2022-11-23T04:05:27;12.40;;;6.27;;
4672;SDS011;61885;53.560;9.940;2022-11-23T04:07:59;11.63;;;5.83;;
4672;SDS011;61885;53.560;9.940;2022-11-23T04:10:34;19.80;;;7.00;;
4672;SDS011;61885;53.560;9.940;2022-11-23T04:13:07;17.10;;;6.00;;
4672;SDS011;61885;53.560;9.940;2022-11-23T04:15:39;14.20;;;5.40;;
4672;SDS011;61885;53.560;9.940;2022-11-23T04:18:11;13.03;;;6.27;;
4672;SDS011;61885;53.560;9.940;2022-11-23T04:20:41;15.83;;;5.87;;
4672;SDS011;61885;53.560;9.940;2022-11-23T04:23:10;9.27;;;5.40;;
4672;SDS011;61885;53.560;9.940;2022-11-23T04:25:40;13.70;;;6.03;;
4672;SDS011;61885;53.560;9.940;2022-11-23T04:28:12;14.70;;;6.10;;
4672;SDS011;61885;53.560;9.940;2022-11-23T04:30:43;14.40;;;5.77;;
4672;SDS011;61885;53.560;9.940;2022-11-23T04:33:13;24.33;;;6.00;;
4672;SDS011;61885;53.560;9.940;2022-11-23T04:35:42;23.73;;;6.13;;
4672;SDS011;61885;53.560;9.940;2022-11-23T04:38:15;16.60;;;6.97;;
4672;SDS011;61885;53.560;9.940;2022-11-23T04:40:45;13.23;;;5.63;;
4672;SDS011;61885;53.560;9.940;2022-11-23T04:43:18;11.50;;;6.13;;
4672;SDS011;61885;53.560;9.940;2022-11-23T04:45:50;16.20;;;6.40;;
4672;SDS011;61885;53.560;9.940;2022-11-23T04:48:20;18.43;;;7.03;;
4672;SDS011;61885;53.560;9.940;2022-11-23T04:50:50;11.93;;;7.13;;
4672;SDS011;61885;53.560;9.940;2022-11-23T04:53:20;10.50;;;5.67;;
4672;SDS011;61885;53.560;9.940;2022-11-23T04:55:50;11.03;;;5.77;;
4672;SDS011;61885;53.560;9.940;2022-11-23T04:58:23;13.57;;;6.03;;
4672;SDS011;61885;53.560;9.940;2022-11-23T05:00:53;13.53;;;7.17;;
4672;SDS011;61885;53.560;9.940;2022-11-23T05:03:24;9.80;;;5.87;;
4672;SDS011;61885;53.560;9.940;2022-11-23T05:05:56;13.17;;;5.53;;
4672;SDS011;61885;53.560;9.940;2022-11-23T05:08:27;18.43;;;5.53;;
4672;SDS011;61885;53.560;9.940;2022-11-23T05:10:57;9.47;;;5.23;;
4672;SDS011;61885;53.560;9.940;2022-11-23T05:13:32;13.67;;;6.33;;
4672;SDS011;61885;53.560;9.940;2022-11-23T05:16:03;15.97;;;6.50;;
4672;SDS011;61885;53.560;9.940;2022-11-23T05:18:33;17.80;;;6.03;;
4672;SDS011;61885;53.560;9.940;2022-11-23T05:21:02;11.77;;;5.60;;
4672;SDS011;61885;53.560;9.940;2022-11-23T05:23:34;11.60;;;5.47;;
4672;SDS011;61885;53.560;9.940;2022-11-23T05:26:03;19.17;;;6.10;;
4672;SDS011;61885;53.560;9.940;2022-11-23T05:28:36;9.93;;;5.80;;
4672;SDS011;61885;53.560;9.940;2022-11-23T05:31:06;10.33;;;5.10;;
4672;SDS011;61885;53.560;9.940;2022-11-23T05:33:36;9.13;;;5.70;;
4672;SDS011;61885;53.560;9.940;2022-11-23T05:36:07;11.03;;;6.47;;
4672;SDS011;61885;53.560;9.940;2022-11-23T05:38:38;13.27;;;6.07;;
4672;SDS011;61885;53.560;9.940;2022-11-23T05:41:08;14.50;;;6.43;;
4672;SDS011;61885;53.560;9.940;2022-11-23T05:43:40;13.47;;;6.33;;
4672;SDS011;61885;53.560;9.940;2022-11-23T05:46:10;14.40;;;6.30;;
4672;SDS011;61885;53.560;9.940;2022-11-23T05:48:39;12.13;;;5.73;;
4672;SDS011;61885;53.560;9.940;2022-11-23T05:51:10;17.40;;;6.40;;
4672;SDS011;61885;53.560;9.940;2022-11-23T05:53:40;15.07;;;6.40;;
4672;SDS011;61885;53.560;9.940;2022-11-23T05:56:10;17.80;;;6.20;;
4672;SDS011;61885;53.560;9.940;2022-11-23T05:58:43;13.40;;;6.47;;
4672;SDS011;61885;53.560;9.940;2022-11-23T06:01:12;10.77;;;6.23;;
4672;SDS011;61885;53.560;9.940;2022-11-23T06:03:42;11.77;;;5.93;;
4672;SDS011;61885;53.560;9.940;2022-11-23T06:06:12;14.73;;;6.00;;
4672;SDS011;61885;53.560;9.940;2022-11-23T06:08:41;11.10;;;5.80;;
4672;SDS011;61885;53.560;9.940;2022-11-23T06:11:11;10.47;;;5.97;;
4672;SDS011;61885;53.560;9.940;2022-11-23T06:13:44;11.43;;;6.50;;
4672;SDS011;61885;53.560;9.940;2022-11-23T06:16:14;19.70;;;6.50;;
4672;SDS011;61885;53.560;9.940;2022-11-23T06:18:44;15.00;;;6.50;;
4672;SDS011;61885;53.560;9.940;2022-11-23T06:21:13;12.83;;;6.00;;
4672;SDS011;61885;53.560;9.940;2022-11-23T06:23:45;12.27;;;6.27;;
4672;SDS011;61885;53.560;9.940;2022-11-23T06:26:18;18.20;;;6.10;;
4672;SDS011;61885;53.560;9.940;2022-11-23T06:28:51;14.87;;;6.50;;
4672;SDS011;61885;53.560;9.940;2022-11-23T06:31:21;10.80;;;6.07;;
4672;SDS011;61885;53.560;9.940;2022-11-23T06:33:51;10.97;;;6.60;;
4672;SDS011;61885;53.560;9.940;2022-11-23T06:36:21;14.33;;;5.83;;
4672;SDS011;61885;53.560;9.940;2022-11-23T06:38:56;15.63;;;6.40;;
4672;SDS011;61885;53.560;9.940;2022-11-23T06:41:25;8.83;;;5.27;;
4672;SDS011;61885;53.560;9.940;2022-11-23T06:43:59;11.20;;;5.50;;
4672;SDS011;61885;53.560;9.940;2022-11-23T06:46:29;13.00;;;6.07;;
4672;SDS011;61885;53.560;9.940;2022-11-23T06:48:59;11.80;;;5.80;;
4672;SDS011;61885;53.560;9.940;2022-11-23T06:51:29;14.50;;;5.43;;
4672;SDS011;61885;53.560;9.940;2022-11-23T06:53:59;12.30;;;5.80;;
4672;SDS011;61885;53.560;9.940;2022-11-23T06:56:29;15.27;;;7.13;;
4672;SDS011;61885;53.560;9.940;2022-11-23T06:59:02;27.83;;;6.30;;
4672;SDS011;61885;53.560;9.940;2022-11-23T07:01:31;12.23;;;5.67;;
4672;SDS011;61885;53.560;9.940;2022-11-23T07:04:01;9.67;;;5.50;;
4672;SDS011;61885;53.560;9.940;2022-11-23T07:06:31;15.87;;;5.60;;
4672;SDS011;61885;53.560;9.940;2022-11-23T07:09:01;14.03;;;5.23;;
4672;SDS011;61885;53.560;9.940;2022-11-23T07:11:31;6.87;;;5.00;;
4672;SDS011;61885;53.560;9.940;2022-11-23T07:14:03;18.93;;;5.93;;
4672;SDS011;61885;53.560;9.940;2022-11-23T07:16:33;11.10;;;5.47;;
4672;SDS011;61885;53.560;9.940;2022-11-23T07:19:03;7.87;;;5.10;;
4672;SDS011;61885;53.560;9.940;2022-11-23T07:21:34;9.17;;;5.27;;
4672;SDS011;61885;53.560;9.940;2022-11-23T07:24:04;11.43;;;5.00;;
4672;SDS011;61885;53.560;9.940;2022-11-23T07:26:36;7.53;;;5.10;;
4672;SDS011;61885;53.560;9.940;2022-11-23T07:29:09;15.20;;;5.87;;
4672;SDS011;61885;53.560;9.940;2022-11-23T07:31:38;9.77;;;5.50;;
4672;SDS011;61885;53.560;9.940;2022-11-23T07:34:08;13.40;;;6.57;;
4672;SDS011;61885;53.560;9.940;2022-11-23T07:36:38;15.03;;;5.60;;
4672;SDS011;61885;53.560;9.940;2022-11-23T07:39:07;6.27;;;4.20;;
4672;SDS011;61885;53.560;9.940;2022-11-23T07:41:37;15.17;;;6.00;;
4672;SDS011;61885;53.560;9.940;2022-11-23T07:44:10;8.00;;;4.67;;
4672;SDS011;61885;53.560;9.940;2022-11-23T07:46:46;13.03;;;5.53;;
4672;SDS011;61885;53.560;9.940;2022-11-23T07:49:16;9.67;;;4.93;;
4672;SDS011;61885;53.560;9.940;2022-11-23T07:51:49;9.00;;;5.37;;
4672;SDS011;61885;53.560;9.940;2022-11-23T07:54:19;13.83;;;4.73;;
4672;SDS011;61885;53.560;9.940;2022-11-23T07:56:52;14.00;;;4.90;;
4672;SDS011;61885;53.560;9.940;2022-11-23T07:59:25;16.00;;;6.20;;
4672;SDS011;61885;53.560;9.940;2022-11-23T08:01:57;7.83;;;5.03;;
4672;SDS011;61885;53.560;9.940;2022-11-23T08:04:27;8.03;;;4.87;;
4672;SDS011;61885;53.560;9.940;2022-11-23T08:06:56;5.90;;;4.30;;
4672;SDS011;61885;53.560;9.940;2022-11-23T08:09:27;9.00;;;5.00;;
4672;SDS011;61885;53.560;9.940;2022-11-23T08:11:59;5.93;;;5.00;;
4672;SDS011;61885;53.560;9.940;2022-11-23T08:14:31;6.00;;;4.27;;
4672;SDS011;61885;53.560;9.940;2022-11-23T08:17:01;9.33;;;4.83;;
4672;SDS011;61885;53.560;9.940;2022-11-23T08:19:33;8.07;;;5.43;;
4672;SDS011;61885;53.560;9.940;2022-11-23T08:22:03;8.10;;;4.60;;
4672;SDS011;61885;53.560;9.940;2022-11-23T08:24:34;7.07;;;4.40;;
4672;SDS011;61885;53.560;9.940;2022-11-23T08:27:03;12.97;;;5.10;;
4672;SDS011;61885;53.560;9.940;2022-11-23T08:29:36;9.57;;;5.00;;
4672;SDS011;61885;53.560;9.940;2022-11-23T08:32:07;9.10;;;5.17;;
4672;SDS011;61885;53.560;9.940;2022-11-23T08:34:37;8.90;;;4.73;;
4672;SDS011;61885;53.560;9.940;2022-11-23T08:37:13;6.40;;;4.83;;
4672;SDS011;61885;53.560;9.940;2022-11-23T08:39:43;14.60;;;4.50;;
4672;SDS011;61885;53.560;9.940;2022-11-23T08:42:13;9.43;;;5.20;;
4672;SDS011;61885;53.560;9.940;2022-11-23T08:44:46;7.70;;;4.60;;
4672;SDS011;61885;53.560;9.940;2022-11-23T08:47:16;10.40;;;4.10;;
4672;SDS011;61885;53.560;9.940;2022-11-23T08:49:45;11.43;;;4.53;;
4672;SDS011;61885;53.560;9.940;2022-11-23T08:52:18;16.87;;;4.53;;
4672;SDS011;61885;53.560;9.940;2022-11-23T08:54:50;16.43;;;4.70;;
4672;SDS011;61885;53.560;9.940;2022-11-23T08:57:23;7.77;;;4.57;;
4672;SDS011;61885;53.560;9.940;2022-11-23T08:59:55;5.23;;;4.00;;
4672;SDS011;61885;53.560;9.940;2022-11-23T09:02:28;6.17;;;3.90;;
4672;SDS011;61885;53.560;9.940;2022-11-23T09:05:01;5.10;;;3.93;;
4672;SDS011;61885;53.560;9.940;2022-11-23T09:07:34;6.20;;;4.50;;
4672;SDS011;61885;53.560;9.940;2022-11-23T09:10:04;8.80;;;4.40;;
4672;SDS011;61885;53.560;9.940;2022-11-23T09:12:36;5.50;;;3.43;;
4672;SDS011;61885;53.560;9.940;2022-11-23T09:15:09;9.70;;;4.00;;
4672;SDS011;61885;53.560;9.940;2022-11-23T09:17:39;9.80;;;3.53;;
4672;SDS011;61885;53.560;9.940;2022-11-23T09:20:10;7.13;;;4.07;;
4672;SDS011;61885;53.560;9.940;2022-11-23T09:22:40;13.10;;;3.93;;
4672;SDS011;61885;53.560;9.940;2022-11-23T09:25:10;6.00;;;3.50;;
4672;SDS011;61885;53.560;9.940;2022-11-23T09:27:40;10.90;;;3.60;;
4672;SDS011;61885;53.560;9.940;2022-11-23T09:30:14;6.20;;;4.00;;
4672;SDS011;61885;53.560;9.940;2022-11-23T09:32:45;4.13;;;3.73;;
4672;SDS011;61885;53.560;9.940;2022-11-23T09:35:18;11.50;;;3.97;;
4672;SDS011;61885;53.560;9.940;2022-11-23T09:37:53;10.73;;;3.50;;
4672;SDS011;61885;53.560;9.940;2022-11-23T09:40:24;7.00;;;3.83;;
4672;SDS011;61885;53.560;9.940;2022-11-23T09:43:07;3.27;;;3.03;;
4672;SDS011;61885;53.560;9.940;2022-11-23T09:45:54;7.13;;;3.70;;
4672;SDS011;61885;53.560;9.940;2022-11-23T09:48:40;3.80;;;3.40;;
4672;SDS011;61885;53.560;9.940;2022-11-23T09:51:18;7.07;;;4.07;;
4672;SDS011;61885;53.560;9.940;2022-11-23T09:53:50;24.93;;;12.83;;
4672;SDS011;61885;53.560;9.940;2022-11-23T09:56:28;6.93;;;4.63;;
4672;SDS011;61885;53.560;9.940;2022-11-23T09:59:04;7.20;;;4.27;;
4672;SDS011;61885;53.560;9.940;2022-11-23T10:01:43;4.07;;;3.70;;
4672;SDS011;61885;53.560;9.940;2022-11-23T10:04:14;5.33;;;3.20;;
4672;SDS011;61885;53.560;9.940;2022-11-23T10:06:49;9.80;;;2.87;;
4672;SDS011;61885;53.560;9.940;2022-11-23T10:09:28;5.77;;;4.17;;
4672;SDS011;61885;53.560;9.940;2022-11-23T10:12:14;6.40;;;3.40;;
4672;SDS011;61885;53.560;9.940;2022-11-23T10:14:57;5.33;;;3.73;;
4672;SDS011;61885;53.560;9.940;2022-11-23T10:17:42;7.90;;;3.13;;
4672;SDS011;61885;53.560;9.940;2022-11-23T10:20:32;6.20;;;3.27;;
4672;SDS011;61885;53.560;9.940;2022-11-23T10:23:12;7.17;;;3.20;;
4672;SDS011;61885;53.560;9.940;2022-11-23T10:25:48;7.50;;;3.67;;
4672;SDS011;61885;53.560;9.940;2022-11-23T10:28:20;4.63;;;3.13;;
4672;SDS011;61885;53.560;9.940;2022-11-23T10:30:52;4.37;;;3.20;;
4672;SDS011;61885;53.560;9.940;2022-11-23T10:33:29;8.30;;;4.10;;
4672;SDS011;61885;53.560;9.940;2022-11-23T10:36:00;5.63;;;3.40;;
4672;SDS011;61885;53.560;9.940;2022-11-23T10:38:30;5.90;;;3.60;;
4672;SDS011;61885;53.560;9.940;2022-11-23T10:41:00;4.70;;;3.20;;
4672;SDS011;61885;53.560;9.940;2022-11-23T10:43:34;3.10;;;2.57;;
4672;SDS011;61885;53.560;9.940;2022-11-23T10:49:07;3.30;;;3.00;;
4672;SDS011;61885;53.560;9.940;2022-11-23T10:51:39;6.43;;;2.97;;
4672;SDS011;61885;53.560;9.940;2022-11-23T10:54:19;8.63;;;3.13;;
4672;SDS011;61885;53.560;9.940;2022-11-23T10:56:54;3.20;;;2.87;;
4672;SDS011;61885;53.560;9.940;2022-11-23T10:59:28;5.80;;;3.17;;
4672;SDS011;61885;53.560;9.940;2022-11-23T11:02:08;10.13;;;3.30;;
4672;SDS011;61885;53.560;9.940;2022-11-23T11:07:51;7.77;;;3.57;;
4672;SDS011;61885;53.560;9.940;2022-11-23T11:10:32;4.43;;;2.77;;
4672;SDS011;61885;53.560;9.940;2022-11-23T11:13:22;4.70;;;3.30;;
4672;SDS011;61885;53.560;9.940;2022-11-23T11:15:53;11.50;;;3.40;;
4672;SDS011;61885;53.560;9.940;2022-11-23T11:18:28;3.50;;;2.70;;
4672;SDS011;61885;53.560;9.940;2022-11-23T11:21:03;3.43;;;2.97;;
4672;SDS011;61885;53.560;9.940;2022-11-23T11:23:37;5.33;;;2.87;;
4672;SDS011;61885;53.560;9.940;2022-11-23T11:26:17;6.10;;;2.90;;
4672;SDS011;61885;53.560;9.940;2022-11-23T11:28:49;4.37;;;3.10;;
4672;SDS011;61885;53.560;9.940;2022-11-23T11:31:29;6.90;;;2.43;;
4672;SDS011;61885;53.560;9.940;2022-11-23T11:34:17;4.73;;;3.27;;
4672;SDS011;61885;53.560;9.940;2022-11-23T11:36:55;16.47;;;2.70;;
4672;SDS011;61885;53.560;9.940;2022-11-23T11:39:31;4.90;;;2.70;;
4672;SDS011;61885;53.560;9.940;2022-11-23T11:42:10;2.80;;;2.07;;
4672;SDS011;61885;53.560;9.940;2022-11-23T11:44:47;4.90;;;2.97;;
4672;SDS011;61885;53.560;9.940;2022-11-23T11:47:23;2.70;;;1.90;;
4672;SDS011;61885;53.560;9.940;2022-11-23T11:50:00;3.23;;;2.93;;
4672;SDS011;61885;53.560;9.940;2022-11-23T11:52:45;4.37;;;2.90;;
4672;SDS011;61885;53.560;9.940;2022-11-23T11:55:17;19.47;;;3.10;;
4672;SDS011;61885;53.560;9.940;2022-11-23T11:57:51;5.40;;;2.87;;
4672;SDS011;61885;53.560;9.940;2022-11-23T12:00:24;3.67;;;2.70;;
4672;SDS011;61885;53.560;9.940;2022-11-23T12:02:56;5.53;;;2.60;;
4672;SDS011;61885;53.560;9.940;2022-11-23T12:05:35;5.90;;;2.90;;
4672;SDS011;61885;53.560;9.940;2022-11-23T12:08:13;4.90;;;3.07;;
4672;SDS011;61885;53.560;9.940;2022-11-23T12:10:48;6.93;;;2.90;;
4672;SDS011;61885;53.560;9.940;2022-11-23T12:13:20;8.90;;;2.67;;
4672;SDS011;61885;53.560;9.940;2022-11-23T12:15:53;2.60;;;2.40;;
4672;SDS011;61885;53.560;9.940;2022-11-23T12:21:34;8.73;;;4.63;;
4672;SDS011;61885;53.560;9.940;2022-11-23T12:24:38;7.40;;;3.10;;
4672;SDS011;61885;53.560;9.940;2022-11-23T12:27:21;2.50;;;1.93;;
4672;SDS011;61885;53.560;9.940;2022-11-23T12:32:59;7.00;;;2.20;;
4672;SDS011;61885;53.560;9.940;2022-11-23T12:35:49;2.73;;;2.13;;
4672;SDS011;61885;53.560;9.940;2022-11-23T12:38:44;4.97;;;2.87;;
4672;SDS011;61885;53.560;9.940;2022-11-23T12:41:27;5.23;;;3.00;;
4672;SDS011;61885;53.560;9.940;2022-11-23T12:47:05;2.30;;;2.10;;
4672;SDS011;61885;53.560;9.940;2022-11-23T12:49:44;2.20;;;2.07;;
4672;SDS011;61885;53.560;9.940;2022-11-23T12:52:27;7.73;;;3.00;;
4672;SDS011;61885;53.560;9.940;2022-11-23T12:55:14;4.27;;;2.37;;
4672;SDS011;61885;53.560;9.940;2022-11-23T12:57:51;4.33;;;2.40;;
4672;SDS011;61885;53.560;9.940;2022-11-23T13:00:29;6.93;;;2.10;;
4672;SDS011;61885;53.560;9.940;2022-11-23T13:03:27;2.13;;;1.70;;
4672;SDS011;61885;53.560;9.940;2022-11-23T13:12:25;7.80;;;2.33;;
4672;SDS011;61885;53.560;9.940;2022-11-23T13:15:15;3.40;;;1.57;;
4672;SDS011;61885;53.560;9.940;2022-11-23T13:17:54;3.53;;;1.97;;
4672;SDS011;61885;53.560;9.940;2022-11-23T13:23:33;3.00;;;2.27;;
4672;SDS011;61885;53.560;9.940;2022-11-23T13:26:12;4.80;;;1.87;;
4672;SDS011;61885;53.560;9.940;2022-11-23T13:28:44;5.37;;;2.17;;
4672;SDS011;61885;53.560;9.940;2022-11-23T13:34:41;3.23;;;1.70;;
4672;SDS011;61885;53.560;9.940;2022-11-23T13:37:11;4.13;;;1.83;;
4672;SDS011;61885;53.560;9.940;2022-11-23T13:42:42;5.10;;;1.77;;
4672;SDS011;61885;53.560;9.940;2022-11-23T13:45:25;3.77;;;2.47;;
4672;SDS011;61885;53.560;9.940;2022-11-23T13:48:09;19.13;;;2.87;;
4672;SDS011;61885;53.560;9.940;2022-11-23T13:50:56;5.53;;;2.50;;
4672;SDS011;61885;53.560;9.940;2022-11-23T13:53:28;2.00;;;1.90;;
4672;SDS011;61885;53.560;9.940;2022-11-23T13:56:14;7.50;;;2.80;;
4672;SDS011;61885;53.560;9.940;2022-11-23T13:58:52;5.73;;;2.90;;
4672;SDS011;61885;53.560;9.940;2022-11-23T14:04:25;23.10;;;9.20;;
4672;SDS011;61885;53.560;9.940;2022-11-23T14:06:57;5.33;;;3.43;;
4672;SDS011;61885;53.560;9.940;2022-11-23T14:09:32;2.10;;;1.80;;
4672;SDS011;61885;53.560;9.940;2022-11-23T14:12:11;3.20;;;2.10;;
4672;SDS011;61885;53.560;9.940;2022-11-23T14:14:49;2.90;;;2.07;;
4672;SDS011;61885;53.560;9.940;2022-11-23T14:17:34;3.40;;;2.27;;
4672;SDS011;61885;53.560;9.940;2022-11-23T14:20:51;2.80;;;1.40;;
4672;SDS011;61885;53.560;9.940;2022-11-23T14:26:36;8.03;;;2.10;;
4672;SDS011;61885;53.560;9.940;2022-11-23T14:32:28;6.17;;;2.00;;
4672;SDS011;61885;53.560;9.940;2022-11-23T14:35:12;3.83;;;2.17;;
4672;SDS011;61885;53.560;9.940;2022-11-23T14:37:55;9.53;;;2.40;;
4672;SDS011;61885;53.560;9.940;2022-11-23T14:40:45;1.70;;;1.60;;
4672;SDS011;61885;53.560;9.940;2022-11-23T14:43:20;2.70;;;2.33;;
4672;SDS011;61885;53.560;9.940;2022-11-23T14:45:53;5.10;;;1.90;;
4672;SDS011;61885;53.560;9.940;2022-11-23T14:48:32;3.20;;;2.17;;
4672;SDS011;61885;53.560;9.940;2022-11-23T14:51:04;2.90;;;2.00;;
4672;SDS011;61885;53.560;9.940;2022-11-23T14:53:42;5.10;;;1.83;;
4672;SDS011;61885;53.560;9.940;2022-11-23T14:58:53;2.40;;;1.90;;
4672;SDS011;61885;53.560;9.940;2022-11-23T15:01:27;2.63;;;1.70;;
4672;SDS011;61885;53.560;9.940;2022-11-23T15:03:59;5.90;;;1.70;;
4672;SDS011;61885;53.560;9.940;2022-11-23T15:06:39;4.60;;;2.13;;
4672;SDS011;61885;53.560;9.940;2022-11-23T15:09:18;3.33;;;1.20;;
4672;SDS011;61885;53.560;9.940;2022-11-23T15:12:07;6.20;;;2.03;;
4672;SDS011;61885;53.560;9.940;2022-11-23T15:14:49;3.93;;;2.73;;
4672;SDS011;61885;53.560;9.940;2022-11-23T15:17:20;6.40;;;2.40;;
4672;SDS011;61885;53.560;9.940;2022-11-23T15:19:54;6.00;;;2.07;;
4672;SDS011;61885;53.560;9.940;2022-11-23T15:22:26;5.40;;;2.67;;
4672;SDS011;61885;53.560;9.940;2022-11-23T15:25:06;7.60;;;5.17;;
4672;SDS011;61885;53.560;9.940;2022-11-23T15:27:47;6.97;;;4.30;;
4672;SDS011;61885;53.560;9.940;2022-11-23T15:30:18;3.57;;;2.67;;
4672;SDS011;61885;53.560;9.940;2022-11-23T15:32:54;22.17;;;4.10;;
4672;SDS011;61885;53.560;9.940;2022-11-23T15:35:30;4.97;;;3.33;;
4672;SDS011;61885;53.560;9.940;2022-11-23T15:38:05;4.80;;;2.97;;
4672;SDS011;61885;53.560;9.940;2022-11-23T15:40:47;5.67;;;3.57;;
4672;SDS011;61885;53.560;9.940;2022-11-23T15:43:18;5.73;;;3.07;;
4672;SDS011;61885;53.560;9.940;2022-11-23T15:46:02;5.47;;;3.60;;
4672;SDS011;61885;53.560;9.940;2022-11-23T15:48:39;5.87;;;3.27;;
4672;SDS011;61885;53.560;9.940;2022-11-23T15:51:17;5.40;;;3.40;;
4672;SDS011;61885;53.560;9.940;2022-11-23T15:54:05;5.50;;;3.13;;
4672;SDS011;61885;53.560;9.940;2022-11-23T15:56:58;6.83;;;2.33;;
4672;SDS011;61885;53.560;9.940;2022-11-23T15:59:31;5.13;;;2.93;;
4672;SDS011;61885;53.560;9.940;2022-11-23T16:02:14;11.87;;;3.90;;
4672;SDS011;61885;53.560;9.940;2022-11-23T16:04:48;3.87;;;3.20;;
4672;SDS011;61885;53.560;9.940;2022-11-23T16:07:31;3.20;;;2.80;;
4672;SDS011;61885;53.560;9.940;2022-11-23T16:10:13;3.67;;;3.10;;
4672;SDS011;61885;53.560;9.940;2022-11-23T16:12:55;10.13;;;3.37;;
4672;SDS011;61885;53.560;9.940;2022-11-23T16:15:36;5.97;;;4.07;;
4672;SDS011;61885;53.560;9.940;2022-11-23T16:18:19;6.27;;;3.50;;